createdAt,value
2022-12-08T00:00:09.550Z,99768.84
2022-12-08T00:01:17.448Z,99759.81
2022-12-08T00:02:19.794Z,99762.56
2022-12-08T00:03:22.257Z,99766.94
2022-12-08T00:04:24.850Z,99753.53
2022-12-08T00:05:45.439Z,99763.41
2022-12-08T00:07:06.371Z,99759.63
2022-12-08T00:08:28.884Z,99758.53
2022-12-08T00:09:39.402Z,99759.38
2022-12-08T00:10:49.891Z,99761.25
2022-12-08T00:12:01.292Z,99758.34
2022-12-08T00:13:03.976Z,99758.34
2022-12-08T00:14:06.370Z,99754.53
2022-12-08T00:15:08.813Z,99753.47
2022-12-08T00:16:11.368Z,99752.88
2022-12-08T00:17:15.832Z,99757.03
2022-12-08T00:18:18.055Z,99755.97
2022-12-08T00:19:20.681Z,99753.25
2022-12-08T00:20:22.857Z,99760.13
2022-12-08T00:21:25.069Z,99754.09
2022-12-08T00:22:29.281Z,99754.69
2022-12-08T00:23:31.505Z,99748.16
2022-12-08T00:24:38.285Z,99760.13
2022-12-08T00:25:40.468Z,99754.44
2022-12-08T00:26:42.679Z,99754.44
2022-12-08T00:27:44.840Z,99754.25
2022-12-08T00:28:47.738Z,99753.16
2022-12-08T00:29:49.996Z,99755.06
2022-12-08T00:30:52.173Z,99755.06
2022-12-08T00:31:54.645Z,99755.91
2022-12-08T00:32:56.886Z,99750.44
2022-12-08T00:33:59.603Z,99752.13
2022-12-08T00:35:02.394Z,99751.28
2022-12-08T00:36:09.148Z,99754.84
2022-12-08T00:37:11.331Z,99756.75
2022-12-08T00:38:16.853Z,99757.34
2022-12-08T00:39:19.426Z,99756.53
2022-12-08T00:40:22.329Z,99755.69
2022-12-08T00:41:45.125Z,99757.34
2022-12-08T00:42:47.297Z,99744.78
2022-12-08T00:43:49.471Z,99749.16
2022-12-08T00:44:51.720Z,99743.69
2022-12-08T00:45:53.960Z,99745.38
2022-12-08T00:46:56.242Z,99738.22
2022-12-08T00:47:58.403Z,99740.97
2022-12-08T00:49:06.986Z,99739.09
2022-12-08T00:50:09.665Z,99744.78
2022-12-08T00:51:11.872Z,99733.84
2022-12-08T00:52:14.110Z,99742.06
2022-12-08T00:53:16.510Z,99735.75
2022-12-08T00:54:19.283Z,99736.34
2022-12-08T00:55:21.500Z,99735.50
2022-12-08T00:56:25.596Z,99738.22
2022-12-08T00:57:27.827Z,99741.81
2022-12-08T00:58:30.057Z,99746.41
2022-12-08T00:59:33.363Z,99748.09
2022-12-08T01:00:35.558Z,99740.13
2022-12-08T01:01:38.175Z,99740.97
2022-12-08T01:02:40.737Z,99745.38
2022-12-08T01:03:46.050Z,99743.69
2022-12-08T01:04:48.240Z,99735.50
2022-12-08T01:05:50.463Z,99740.13
2022-12-08T01:06:52.708Z,99740.13
2022-12-08T01:07:54.991Z,99735.75
2022-12-08T01:08:57.373Z,99741.19
2022-12-08T01:09:59.696Z,99746.41
2022-12-08T01:11:19.490Z,99743.94
2022-12-08T01:12:24.733Z,99753.16
2022-12-08T01:13:29.963Z,99748.31
2022-12-08T01:14:32.261Z,99743.09
2022-12-08T01:15:34.471Z,99746.66
2022-12-08T01:16:37.323Z,99746.66
2022-12-08T01:17:41.830Z,99744.78
2022-12-08T01:18:44.003Z,99746.66
2022-12-08T01:19:46.162Z,99745.84
2022-12-08T01:20:48.377Z,99741.44
2022-12-08T01:21:52.963Z,99740.59
2022-12-08T01:22:55.201Z,99742.25
2022-12-08T01:24:00.101Z,99738.69
2022-12-08T01:25:02.921Z,99739.75
2022-12-08T01:26:06.744Z,99731.56
2022-12-08T01:27:08.985Z,99738.94
2022-12-08T01:28:11.262Z,99738.94
2022-12-08T01:29:13.488Z,99733.47
2022-12-08T01:30:15.888Z,99728.00
2022-12-08T01:31:20.649Z,99736.19
2022-12-08T01:32:23.018Z,99734.53
2022-12-08T01:33:25.674Z,99733.69
2022-12-08T01:34:27.956Z,99740.81
2022-12-08T01:35:30.176Z,99739.16
2022-12-08T01:36:37.226Z,99732.03
2022-12-08T01:37:41.965Z,99732.03
2022-12-08T01:38:44.304Z,99737.50
2022-12-08T01:39:46.548Z,99735.81
2022-12-08T01:40:49.271Z,99735.19
2022-12-08T01:41:51.600Z,99728.69
2022-12-08T01:42:53.921Z,99732.47
2022-12-08T01:44:08.968Z,99726.19
2022-12-08T01:45:27.234Z,99729.97
2022-12-08T01:46:32.483Z,99737.31
2022-12-08T01:47:42.763Z,99723.69
2022-12-08T01:48:45.163Z,99724.75
2022-12-08T01:49:47.954Z,99730.19
2022-12-08T01:50:53.794Z,99724.75
2022-12-08T01:52:29.141Z,99726.66
2022-12-08T01:53:33.130Z,99729.59
2022-12-08T01:54:45.839Z,99720.56
2022-12-08T01:55:52.801Z,99723.28
2022-12-08T01:57:04.794Z,99711.56
2022-12-08T01:58:22.793Z,99718.06
2022-12-08T01:59:33.083Z,99708.22
2022-12-08T02:00:35.355Z,99711.78
2022-12-08T02:01:37.749Z,99710.13
2022-12-08T02:02:59.726Z,99712.00
2022-12-08T02:04:05.119Z,99705.72
2022-12-08T02:05:08.297Z,99705.94
2022-12-08T02:06:11.851Z,99699.88
2022-12-08T02:07:16.498Z,99705.31
2022-12-08T02:08:19.992Z,99701.78
2022-12-08T02:09:22.367Z,99695.47
2022-12-08T02:10:29.823Z,99705.56
2022-12-08T02:11:32.408Z,99696.53
2022-12-08T02:12:34.914Z,99698.66
2022-12-08T02:13:37.440Z,99687.75
2022-12-08T02:14:40.126Z,99686.06
2022-12-08T02:16:01.183Z,99696.97
2022-12-08T02:17:10.427Z,99691.75
2022-12-08T02:18:34.089Z,99694.47
2022-12-08T02:19:39.262Z,99693.03
2022-12-08T02:20:55.073Z,99691.13
2022-12-08T02:22:03.286Z,99684.19
2022-12-08T02:23:22.593Z,99688.00
2022-12-08T02:24:42.740Z,99691.78
2022-12-08T02:26:13.527Z,99689.28
2022-12-08T02:27:37.578Z,99693.31
2022-12-08T02:28:39.739Z,99688.09
2022-12-08T02:30:05.098Z,99690.81
2022-12-08T02:31:53.157Z,99691.88
2022-12-08T02:33:26.536Z,99688.75
2022-12-08T02:34:34.578Z,99688.13
2022-12-08T02:35:42.229Z,99679.56
2022-12-08T02:37:09.135Z,99683.13
2022-12-08T02:38:38.079Z,99683.34
2022-12-08T02:40:08.913Z,99686.31
2022-12-08T02:41:38.767Z,99679.19
2022-12-08T02:43:07.707Z,99680.25
2022-12-08T02:44:33.172Z,99676.69
2022-12-08T02:45:53.283Z,99670.38
2022-12-08T02:47:32.703Z,99673.09
2022-12-08T02:48:35.329Z,99669.56
2022-12-08T02:49:41.940Z,99668.75
2022-12-08T02:50:46.558Z,99669.78
2022-12-08T02:51:48.831Z,99669.78
2022-12-08T02:52:51.079Z,99664.34
2022-12-08T02:53:53.498Z,99664.34
2022-12-08T02:55:06.471Z,99671.47
2022-12-08T02:56:14.993Z,99672.28
2022-12-08T02:57:35.529Z,99666.84
2022-12-08T02:58:56.919Z,99666.84
2022-12-08T03:00:08.445Z,99679.41
2022-12-08T03:01:16.121Z,99664.09
2022-12-08T03:02:50.913Z,99665.78
2022-12-08T03:04:16.233Z,99665.78
2022-12-08T03:05:18.411Z,99665.78
2022-12-08T03:06:42.099Z,99668.50
2022-12-08T03:07:53.701Z,99670.16
2022-12-08T03:09:24.118Z,99661.97
2022-12-08T03:10:35.357Z,99662.81
2022-12-08T03:12:05.724Z,99652.75
2022-12-08T03:13:13.145Z,99662.81
2022-12-08T03:14:17.904Z,99660.91
2022-12-08T03:15:21.803Z,99665.56
2022-12-08T03:16:27.682Z,99664.50
2022-12-08T03:17:31.625Z,99659.03
2022-12-08T03:18:38.141Z,99657.97
2022-12-08T03:19:43.901Z,99656.91
2022-12-08T03:20:48.067Z,99658.59
2022-12-08T03:21:55.622Z,99650.63
2022-12-08T03:23:00.360Z,99655.03
2022-12-08T03:24:06.302Z,99647.69
2022-12-08T03:25:10.409Z,99660.25
2022-12-08T03:26:19.793Z,99656.47
2022-12-08T03:27:25.836Z,99653.75
2022-12-08T03:28:28.030Z,99657.31
2022-12-08T03:29:31.896Z,99652.47
2022-12-08T03:30:38.857Z,99649.75
2022-12-08T03:31:49.402Z,99653.28
2022-12-08T03:32:54.556Z,99650.56
2022-12-08T03:33:59.645Z,99639.66
2022-12-08T03:35:05.934Z,99641.34
2022-12-08T03:36:10.343Z,99642.16
2022-12-08T03:37:13.611Z,99646.56
2022-12-08T03:38:17.589Z,99644.66
2022-12-08T03:39:20.002Z,99641.09
2022-12-08T03:40:22.235Z,99639.44
2022-12-08T03:41:26.850Z,99644.66
2022-12-08T03:42:29.023Z,99645.50
2022-12-08T03:43:31.223Z,99641.72
2022-12-08T03:44:33.483Z,99637.09
2022-12-08T03:45:35.733Z,99634.59
2022-12-08T03:46:38.025Z,99633.53
2022-12-08T03:47:40.170Z,99632.44
2022-12-08T03:48:46.531Z,99638.75
2022-12-08T03:49:48.743Z,99634.97
2022-12-08T03:50:51.291Z,99634.97
2022-12-08T03:51:53.498Z,99634.13
2022-12-08T03:52:55.745Z,99632.84
2022-12-08T03:53:57.925Z,99626.78
2022-12-08T03:55:00.113Z,99626.56
2022-12-08T03:56:15.081Z,99629.06
2022-12-08T03:57:21.768Z,99628.81
2022-12-08T03:58:24.377Z,99624.44
2022-12-08T03:59:28.825Z,99625.28
2022-12-08T04:00:31.092Z,99623.38
2022-12-08T04:01:33.416Z,99620.44
2022-12-08T04:02:35.676Z,99618.56
2022-12-08T04:03:38.026Z,99622.13
2022-12-08T04:04:40.258Z,99621.06
2022-12-08T04:05:42.543Z,99623.78
2022-12-08T04:06:44.794Z,99620.00
2022-12-08T04:07:47.058Z,99622.72
2022-12-08T04:08:50.601Z,99617.28
2022-12-08T04:09:55.045Z,99618.94
2022-12-08T04:10:57.344Z,99615.13
2022-12-08T04:11:59.639Z,99614.31
2022-12-08T04:13:05.460Z,99616.59
2022-12-08T04:14:07.740Z,99622.03
2022-12-08T04:15:18.719Z,99619.31
2022-12-08T04:16:25.043Z,99615.53
2022-12-08T04:17:27.429Z,99617.44
2022-12-08T04:18:29.755Z,99613.63
2022-12-08T04:19:32.033Z,99607.34
2022-12-08T04:20:34.243Z,99617.19
2022-12-08T04:21:36.575Z,99609.00
2022-12-08T04:22:38.816Z,99618.03
2022-12-08T04:23:42.015Z,99611.75
2022-12-08T04:24:44.209Z,99608.78
2022-12-08T04:25:46.519Z,99609.00
2022-12-08T04:26:49.914Z,99608.78
2022-12-08T04:27:52.244Z,99604.16
2022-12-08T04:28:54.544Z,99603.31
2022-12-08T04:29:56.744Z,99600.59
2022-12-08T04:31:05.139Z,99602.28
2022-12-08T04:32:07.453Z,99601.22
2022-12-08T04:33:09.718Z,99599.53
2022-12-08T04:34:11.977Z,99598.47
2022-12-08T04:35:14.282Z,99607.50
2022-12-08T04:36:16.583Z,99603.94
2022-12-08T04:37:18.784Z,99603.94
2022-12-08T04:38:20.989Z,99608.31
2022-12-08T04:39:25.468Z,99607.25
2022-12-08T04:40:27.722Z,99606.44
2022-12-08T04:41:29.929Z,99600.97
2022-12-08T04:42:32.202Z,99610.84
2022-12-08T04:43:35.300Z,99600.75
2022-12-08T04:44:37.546Z,99605.16
2022-12-08T04:45:40.969Z,99606.19
2022-12-08T04:46:43.832Z,99604.28
2022-12-08T04:47:46.500Z,99605.38
2022-12-08T04:48:48.859Z,99607.03
2022-12-08T04:49:51.087Z,99607.03
2022-12-08T04:50:53.456Z,99607.88
2022-12-08T04:51:55.637Z,99606.19
2022-12-08T04:52:57.931Z,99616.06
2022-12-08T04:54:00.167Z,99612.28
2022-12-08T04:55:02.967Z,99617.72
2022-12-08T04:56:12.302Z,99604.09
2022-12-08T04:57:14.785Z,99602.41
2022-12-08T04:58:18.763Z,99600.50
2022-12-08T04:59:20.994Z,99604.09
2022-12-08T05:00:23.366Z,99595.06
2022-12-08T05:01:26.352Z,99601.38
2022-12-08T05:02:28.796Z,99596.09
2022-12-08T05:03:31.024Z,99597.78
2022-12-08T05:04:33.353Z,99593.19
2022-12-08T05:05:35.862Z,99595.91
2022-12-08T05:06:38.027Z,99593.38
2022-12-08T05:07:40.326Z,99587.94
2022-12-08T05:08:43.682Z,99588.16
2022-12-08T05:09:45.849Z,99593.84
2022-12-08T05:10:48.170Z,99595.53
2022-12-08T05:11:50.397Z,99589.22
2022-12-08T05:12:52.612Z,99590.31
2022-12-08T05:13:54.873Z,99589.44
2022-12-08T05:14:57.072Z,99587.56
2022-12-08T05:16:07.418Z,99585.66
2022-12-08T05:17:11.913Z,99593.84
2022-12-08T05:18:14.138Z,99589.44
2022-12-08T05:19:16.895Z,99581.25
2022-12-08T05:20:19.241Z,99593.84
2022-12-08T05:21:21.480Z,99582.94
2022-12-08T05:22:23.687Z,99586.50
2022-12-08T05:23:26.815Z,99586.50
2022-12-08T05:24:31.269Z,99586.50
2022-12-08T05:25:33.461Z,99583.75
2022-12-08T05:26:35.663Z,99581.03
2022-12-08T05:27:37.847Z,99585.44
2022-12-08T05:28:42.307Z,99589.00
2022-12-08T05:29:44.858Z,99594.47
2022-12-08T05:30:47.436Z,99587.34
2022-12-08T05:31:49.916Z,99579.97
2022-12-08T05:32:52.132Z,99582.69
2022-12-08T05:33:57.378Z,99577.47
2022-12-08T05:35:01.832Z,99584.59
2022-12-08T05:36:04.229Z,99582.94
2022-12-08T05:37:06.409Z,99584.84
2022-12-08T05:38:08.962Z,99574.97
2022-12-08T05:39:15.514Z,99588.63
2022-12-08T05:40:17.873Z,99585.91
2022-12-08T05:41:21.588Z,99586.94
2022-12-08T05:42:25.141Z,99579.00
2022-12-08T05:43:27.810Z,99572.69
2022-12-08T05:44:30.006Z,99580.06
2022-12-08T05:45:32.531Z,99579.25
2022-12-08T05:46:34.920Z,99576.50
2022-12-08T05:47:37.212Z,99580.28
2022-12-08T05:48:39.845Z,99581.34
2022-12-08T05:49:42.104Z,99578.63
2022-12-08T05:50:50.976Z,99580.28
2022-12-08T05:51:53.137Z,99575.28
2022-12-08T05:52:55.355Z,99584.31
2022-12-08T05:53:58.246Z,99575.28
2022-12-08T05:55:00.536Z,99579.91
2022-12-08T05:56:02.809Z,99571.97
2022-12-08T05:57:05.070Z,99575.75
2022-12-08T05:58:11.514Z,99576.81
2022-12-08T05:59:13.735Z,99571.53
2022-12-08T06:00:16.400Z,99568.81
2022-12-08T06:01:39.676Z,99577.00
2022-12-08T06:02:41.955Z,99570.97
2022-12-08T06:03:44.268Z,99581.00
2022-12-08T06:04:46.532Z,99573.69
2022-12-08T06:05:48.808Z,99573.69
2022-12-08T06:06:51.081Z,99574.97
2022-12-08T06:07:53.311Z,99570.56
2022-12-08T06:08:55.771Z,99575.19
2022-12-08T06:09:57.994Z,99576.25
2022-12-08T06:11:00.205Z,99575.41
2022-12-08T06:12:02.564Z,99573.53
2022-12-08T06:13:05.307Z,99575.41
2022-12-08T06:14:11.239Z,99583.81
2022-12-08T06:15:13.535Z,99569.56
2022-12-08T06:16:16.203Z,99579.66
2022-12-08T06:17:18.553Z,99577.97
2022-12-08T06:18:21.289Z,99575.25
2022-12-08T06:19:23.484Z,99572.53
2022-12-08T06:20:25.909Z,99575.25
2022-12-08T06:21:28.085Z,99577.97
2022-12-08T06:22:30.624Z,99577.41
2022-12-08T06:23:32.859Z,99577.41
2022-12-08T06:24:35.027Z,99576.53
2022-12-08T06:25:37.279Z,99580.94
2022-12-08T06:26:41.524Z,99582.22
2022-12-08T06:27:43.747Z,99574.88
2022-12-08T06:28:45.963Z,99578.69
2022-12-08T06:29:48.249Z,99582.47
2022-12-08T06:30:50.421Z,99586.00
2022-12-08T06:31:53.023Z,99580.56
2022-12-08T06:32:55.378Z,99584.34
2022-12-08T06:33:57.681Z,99584.34
2022-12-08T06:35:02.872Z,99583.75
2022-12-08T06:36:06.203Z,99580.78
2022-12-08T06:37:08.395Z,99584.56
2022-12-08T06:38:10.675Z,99585.41
2022-12-08T06:39:12.892Z,99590.03
2022-12-08T06:40:15.182Z,99590.88
2022-12-08T06:41:18.133Z,99598.19
2022-12-08T06:42:39.038Z,99589.19
2022-12-08T06:43:42.634Z,99584.56
2022-12-08T06:44:47.477Z,99598.19
2022-12-08T06:45:50.281Z,99592.75
2022-12-08T06:46:52.490Z,99590.03
2022-12-08T06:47:54.703Z,99595.47
2022-12-08T06:48:56.929Z,99593.59
2022-12-08T06:49:59.134Z,99582.69
2022-12-08T06:51:16.348Z,99592.75
2022-12-08T06:52:18.529Z,99586.25
2022-12-08T06:53:20.865Z,99592.53
2022-12-08T06:54:23.083Z,99592.53
2022-12-08T06:55:57.374Z,99585.19
2022-12-08T06:56:47.456Z,99582.69
2022-12-08T06:57:51.211Z,99585.19
2022-12-08T06:58:56.517Z,99590.88
2022-12-08T06:59:58.737Z,99583.50
2022-12-08T07:01:09.707Z,99587.06
2022-12-08T07:02:12.110Z,99586.88
2022-12-08T07:03:15.273Z,99594.19
2022-12-08T07:04:17.505Z,99584.13
2022-12-08T07:05:19.867Z,99589.59
2022-12-08T07:06:24.238Z,99579.75
2022-12-08T07:07:29.274Z,99580.56
2022-12-08T07:08:33.054Z,99580.56
2022-12-08T07:09:35.499Z,99583.91
2022-12-08T07:10:40.306Z,99583.91
2022-12-08T07:11:42.535Z,99583.91
2022-12-08T07:12:45.208Z,99580.13
2022-12-08T07:13:47.432Z,99585.56
2022-12-08T07:14:49.731Z,99577.41
2022-12-08T07:15:52.382Z,99579.03
2022-12-08T07:16:54.836Z,99577.16
2022-12-08T07:18:00.101Z,99585.34
2022-12-08T07:19:02.699Z,99580.72
2022-12-08T07:20:06.434Z,99589.75
2022-12-08T07:21:11.787Z,99587.22
2022-12-08T07:22:21.318Z,99587.22
2022-12-08T07:23:24.293Z,99595.19
2022-12-08T07:24:26.719Z,99596.03
2022-12-08T07:25:28.966Z,99591.63
2022-12-08T07:26:31.209Z,99593.28
2022-12-08T07:27:33.536Z,99590.56
2022-12-08T07:28:40.134Z,99598.75
2022-12-08T07:29:42.367Z,99599.56
2022-12-08T07:30:45.210Z,99594.97
2022-12-08T07:31:47.477Z,99594.72
2022-12-08T07:32:49.650Z,99593.06
2022-12-08T07:33:58.371Z,99597.22
2022-12-08T07:35:00.670Z,99601.00
2022-12-08T07:36:08.278Z,99597.22
2022-12-08T07:37:10.507Z,99604.34
2022-12-08T07:38:13.010Z,99602.44
2022-12-08T07:39:15.230Z,99592.41
2022-12-08T07:40:17.533Z,99600.56
2022-12-08T07:41:23.690Z,99597.63
2022-12-08T07:42:26.055Z,99592.16
2022-12-08T07:43:28.298Z,99600.09
2022-12-08T07:44:30.523Z,99602.84
2022-12-08T07:45:32.756Z,99601.78
2022-12-08T07:46:34.976Z,99590.88
2022-12-08T07:47:37.259Z,99594.41
2022-12-08T07:48:39.760Z,99597.75
2022-12-08T07:49:42.119Z,99598.63
2022-12-08T07:50:45.975Z,99595.88
2022-12-08T07:51:48.150Z,99601.13
2022-12-08T07:52:50.437Z,99600.06
2022-12-08T07:53:54.628Z,99599.00
2022-12-08T07:54:57.204Z,99595.47
2022-12-08T07:55:59.598Z,99595.47
2022-12-08T07:57:04.161Z,99599.81
2022-12-08T07:58:07.387Z,99590.59
2022-12-08T07:59:09.584Z,99592.50
2022-12-08T08:00:12.520Z,99597.72
2022-12-08T08:01:26.918Z,99588.47
2022-12-08T08:02:29.366Z,99594.75
2022-12-08T08:03:32.258Z,99601.88
2022-12-08T08:04:34.585Z,99599.97
2022-12-08T08:05:38.033Z,99602.50
2022-12-08T08:06:40.251Z,99598.69
2022-12-08T08:07:43.792Z,99597.63
2022-12-08T08:08:46.647Z,99598.47
2022-12-08T08:09:48.912Z,99599.31
2022-12-08T08:10:51.080Z,99598.25
2022-12-08T08:12:22.312Z,99597.19
2022-12-08T08:13:15.518Z,99603.25
2022-12-08T08:14:19.456Z,99599.22
2022-12-08T08:15:22.089Z,99601.94
2022-12-08T08:16:24.431Z,99603.63
2022-12-08T08:17:26.891Z,99596.88
2022-12-08T08:18:29.191Z,99602.34
2022-12-08T08:19:31.383Z,99601.28
2022-12-08T08:20:33.735Z,99599.13
2022-12-08T08:21:45.596Z,99599.75
2022-12-08T08:22:50.306Z,99605.22
2022-12-08T08:23:52.524Z,99602.88
2022-12-08T08:24:55.120Z,99604.50
2022-12-08T08:26:02.223Z,99603.44
2022-12-08T08:27:04.550Z,99605.13
2022-12-08T08:28:06.819Z,99601.91
2022-12-08T08:29:09.089Z,99595.41
2022-12-08T08:30:19.910Z,99597.69
2022-12-08T08:31:27.275Z,99594.50
2022-12-08T08:32:33.087Z,99600.31
2022-12-08T08:33:35.318Z,99592.72
2022-12-08T08:34:37.914Z,99609.25
2022-12-08T08:35:40.902Z,99598.69
2022-12-08T08:36:43.505Z,99594.69
2022-12-08T08:37:49.187Z,99603.81
2022-12-08T08:38:52.420Z,99597.69
2022-12-08T08:39:54.722Z,99596.16
2022-12-08T08:40:57.718Z,99599.84
2022-12-08T08:42:00.207Z,99598.31
2022-12-08T08:43:03.581Z,99598.66
2022-12-08T08:44:06.052Z,99601.28
2022-12-08T08:45:08.571Z,99601.41
2022-12-08T08:46:11.190Z,99604.28
2022-12-08T08:47:13.518Z,99606.09
2022-12-08T08:48:15.725Z,99603.50
2022-12-08T08:49:18.763Z,99606.97
2022-12-08T08:50:20.972Z,99609.56
2022-12-08T08:51:23.708Z,99605.66
2022-12-08T08:52:26.026Z,99609.09
2022-12-08T08:53:28.292Z,99606.25
2022-12-08T08:54:33.523Z,99599.34
2022-12-08T08:55:35.751Z,99599.47
2022-12-08T08:56:38.291Z,99597.19
2022-12-08T08:57:40.481Z,99596.81
2022-12-08T08:58:42.872Z,99592.06
2022-12-08T08:59:45.347Z,99591.47
2022-12-08T09:00:47.748Z,99593.81
2022-12-08T09:01:50.086Z,99593.69
2022-12-08T09:02:52.980Z,99599.38
2022-12-08T09:03:55.634Z,99592.44
2022-12-08T09:04:58.432Z,99594.78
2022-12-08T09:06:00.854Z,99597.75
2022-12-08T09:07:03.138Z,99596.28
2022-12-08T09:08:05.428Z,99590.16
2022-12-08T09:09:07.744Z,99601.31
2022-12-08T09:10:10.230Z,99589.69
2022-12-08T09:11:13.799Z,99591.19
2022-12-08T09:12:16.089Z,99586.16
2022-12-08T09:13:18.308Z,99598.97
2022-12-08T09:14:20.681Z,99594.72
2022-12-08T09:15:22.956Z,99606.09
2022-12-08T09:16:25.231Z,99598.25
2022-12-08T09:17:29.875Z,99596.75
2022-12-08T09:18:33.552Z,99595.25
2022-12-08T09:19:35.830Z,99590.16
2022-12-08T09:20:38.325Z,99591.16
2022-12-08T09:21:41.071Z,99591.53
2022-12-08T09:22:52.115Z,99591.94
2022-12-08T09:23:56.779Z,99587.66
2022-12-08T09:24:59.063Z,99595.19
2022-12-08T09:26:01.579Z,99596.41
2022-12-08T09:27:03.865Z,99591.56
2022-12-08T09:28:06.043Z,99605.69
2022-12-08T09:29:09.479Z,99596.97
2022-12-08T09:30:11.844Z,99592.94
2022-12-08T09:31:14.832Z,99596.06
2022-12-08T09:32:17.191Z,99596.66
2022-12-08T09:33:22.725Z,99587.38
2022-12-08T09:34:24.933Z,99594.59
2022-12-08T09:35:27.205Z,99585.31
2022-12-08T09:36:31.088Z,99588.66
2022-12-08T09:37:36.208Z,99587.63
2022-12-08T09:38:38.990Z,99595.38
2022-12-08T09:39:41.499Z,99586.38
2022-12-08T09:40:53.904Z,99586.97
2022-12-08T09:42:01.903Z,99584.81
2022-12-08T09:43:16.665Z,99579.38
2022-12-08T09:44:49.789Z,99576.69
2022-12-08T09:45:52.944Z,99572.88
2022-12-08T09:46:56.469Z,99573.72
2022-12-08T09:48:05.983Z,99569.06
2022-12-08T09:49:14.258Z,99569.09
2022-12-08T09:50:29.226Z,99571.63
2022-12-08T09:51:37.721Z,99568.91
2022-12-08T09:53:04.017Z,99569.81
2022-12-08T09:54:18.722Z,99563.19
2022-12-08T09:55:29.026Z,99569.56
2022-12-08T09:56:36.294Z,99562.16
2022-12-08T09:57:38.572Z,99556.38
2022-12-08T09:58:54.022Z,99559.16
2022-12-08T10:00:03.823Z,99558.63
2022-12-08T10:01:11.897Z,99550.91
2022-12-08T10:02:28.480Z,99554.78
2022-12-08T10:03:31.083Z,99547.06
2022-12-08T10:04:38.707Z,99553.16
2022-12-08T10:05:55.291Z,99548.19
2022-12-08T10:07:04.962Z,99551.50
2022-12-08T10:08:21.472Z,99547.66
2022-12-08T10:09:50.356Z,99542.69
2022-12-08T10:10:58.618Z,99546.25
2022-12-08T10:12:11.373Z,99548.47
2022-12-08T10:13:25.139Z,99549.28
2022-12-08T10:14:53.602Z,99546.81
2022-12-08T10:16:06.957Z,99539.38
2022-12-08T10:17:34.524Z,99538.25
2022-12-08T10:18:37.993Z,99547.06
2022-12-08T10:19:42.879Z,99534.09
2022-12-08T10:20:47.989Z,99535.47
2022-12-08T10:21:51.567Z,99546.44
2022-12-08T10:23:06.601Z,99537.06
2022-12-08T10:24:34.162Z,99542.00
2022-12-08T10:25:55.089Z,99548.53
2022-12-08T10:26:58.052Z,99541.34
2022-12-08T10:28:00.531Z,99546.00
2022-12-08T10:29:02.985Z,99539.38
2022-12-08T10:30:13.508Z,99536.00
2022-12-08T10:31:24.549Z,99539.00
2022-12-08T10:32:34.426Z,99535.09
2022-12-08T10:33:36.793Z,99538.91
2022-12-08T10:35:01.746Z,99535.00
2022-12-08T10:36:05.048Z,99529.16
2022-12-08T10:37:10.255Z,99545.38
2022-12-08T10:38:20.047Z,99540.09
2022-12-08T10:39:40.296Z,99538.91
2022-12-08T10:40:45.868Z,99541.88
2022-12-08T10:41:48.273Z,99530.03
2022-12-08T10:43:00.679Z,99533.53
2022-12-08T10:44:03.034Z,99532.69
2022-12-08T10:45:19.114Z,99527.94
2022-12-08T10:46:28.293Z,99528.75
2022-12-08T10:47:37.302Z,99522.94
2022-12-08T10:49:07.926Z,99524.28
2022-12-08T10:50:17.206Z,99521.00
2022-12-08T10:51:38.034Z,99508.34
2022-12-08T10:52:41.136Z,99518.47
2022-12-08T10:53:46.786Z,99517.94
2022-12-08T10:55:00.387Z,99509.69
2022-12-08T10:56:02.574Z,99519.00
2022-12-08T10:57:05.002Z,99525.31
2022-12-08T10:58:46.242Z,99516.00
2022-12-08T10:59:48.484Z,99515.19
2022-12-08T11:01:00.654Z,99512.44
2022-12-08T11:02:03.097Z,99512.97
2022-12-08T11:03:05.676Z,99516.56
2022-12-08T11:04:36.657Z,99515.50
2022-12-08T11:05:41.511Z,99517.13
2022-12-08T11:06:44.521Z,99516.91
2022-12-08T11:07:50.302Z,99509.72
2022-12-08T11:08:57.706Z,99503.16
2022-12-08T11:10:00.151Z,99510.28
2022-12-08T11:11:02.388Z,99504.78
2022-12-08T11:12:18.612Z,99499.56
2022-12-08T11:13:26.332Z,99502.00
2022-12-08T11:14:47.906Z,99496.25
2022-12-08T11:15:52.090Z,99494.00
2022-12-08T11:17:17.005Z,99497.03
2022-12-08T11:18:42.878Z,99493.97
2022-12-08T11:20:11.430Z,99496.97
2022-12-08T11:21:21.405Z,99500.81
2022-12-08T11:22:46.821Z,99493.91
2022-12-08T11:23:50.808Z,99500.75
2022-12-08T11:25:00.083Z,99490.56
2022-12-08T11:26:14.294Z,99494.41
2022-12-08T11:27:16.501Z,99483.09
2022-12-08T11:28:23.609Z,99490.78
2022-12-08T11:29:27.507Z,99497.34
2022-12-08T11:30:40.945Z,99501.44
2022-12-08T11:31:52.172Z,99494.53
2022-12-08T11:32:57.754Z,99496.69
2022-12-08T11:34:02.090Z,99493.38
2022-12-08T11:35:07.535Z,99491.97
2022-12-08T11:36:14.677Z,99493.34
2022-12-08T11:37:35.885Z,99490.00
2022-12-08T11:38:44.257Z,99488.88
2022-12-08T11:39:51.911Z,99494.63
2022-12-08T11:41:14.223Z,99495.97
2022-12-08T11:42:24.139Z,99490.16
2022-12-08T11:43:48.310Z,99477.50
2022-12-08T11:44:58.766Z,99486.25
2022-12-08T11:46:43.766Z,99496.38
2022-12-08T11:48:14.535Z,99490.28
2022-12-08T11:49:21.286Z,99485.56
2022-12-08T11:50:31.764Z,99486.66
2022-12-08T11:52:00.167Z,99489.91
2022-12-08T11:53:04.483Z,99499.47
2022-12-08T11:54:33.001Z,99487.94
2022-12-08T11:55:43.890Z,99488.44
2022-12-08T11:56:53.435Z,99483.47
2022-12-08T11:57:59.282Z,99486.47
2022-12-08T11:59:10.614Z,99489.47
2022-12-08T12:00:16.914Z,99485.88
2022-12-08T12:01:24.707Z,99486.16
2022-12-08T12:02:31.195Z,99478.19
2022-12-08T12:03:43.819Z,99478.19
2022-12-08T12:04:49.553Z,99477.59
2022-12-08T12:08:22.580Z,99473.78
2022-12-08T12:09:58.944Z,99477.59
2022-12-08T12:11:39.580Z,99481.41
2022-12-08T12:12:59.896Z,99487.75
2022-12-08T12:14:27.016Z,99475.38
2022-12-08T12:15:44.483Z,99477.25
2022-12-08T12:17:05.479Z,99480.00
2022-12-08T12:18:33.947Z,99476.19
2022-12-08T12:19:39.652Z,99473.97
2022-12-08T12:21:19.345Z,99471.22
2022-12-08T12:22:23.286Z,99470.38
2022-12-08T12:23:48.002Z,99466.81
2022-12-08T12:24:52.557Z,99466.25
2022-12-08T12:26:04.813Z,99469.56
2022-12-08T12:27:57.249Z,99464.31
2022-12-08T12:29:08.698Z,99458.84
2022-12-08T12:30:49.888Z,99461.84
2022-12-08T12:31:55.881Z,99464.84
2022-12-08T12:33:08.791Z,99459.38
2022-12-08T12:34:19.863Z,99459.59
2022-12-08T12:35:32.292Z,99461.53
2022-12-08T12:36:48.686Z,99467.25
2022-12-08T12:37:50.968Z,99456.28
2022-12-08T12:39:01.254Z,99459.03
2022-12-08T12:40:12.050Z,99461.78
2022-12-08T12:41:17.765Z,99454.88
2022-12-08T12:42:56.984Z,99459.53
2022-12-08T12:44:37.162Z,99456.22
2022-12-08T12:45:44.017Z,99455.63
2022-12-08T12:46:56.934Z,99454.81
2022-12-08T12:47:59.959Z,99455.09
2022-12-08T12:49:39.499Z,99455.31
2022-12-08T12:50:52.185Z,99453.34
2022-12-08T12:51:55.760Z,99446.19
2022-12-08T12:53:10.629Z,99451.69
2022-12-08T12:54:24.681Z,99443.13
2022-12-08T12:55:48.511Z,99449.72
2022-12-08T12:56:57.341Z,99449.13
2022-12-08T12:58:03.692Z,99454.88
2022-12-08T12:59:43.193Z,99448.53
2022-12-08T13:00:45.452Z,99444.16
2022-12-08T13:01:57.160Z,99444.38
2022-12-08T13:02:59.799Z,99448.22
2022-12-08T13:04:11.921Z,99441.91
2022-12-08T13:05:21.255Z,99437.50
2022-12-08T13:06:34.133Z,99440.25
2022-12-08T13:07:45.743Z,99444.91
2022-12-08T13:08:55.108Z,99435.84
2022-12-08T13:10:02.876Z,99436.09